createdAt,value
2016-05-22T00:00:00.294Z,0
2016-05-22T00:01:00.188Z,0
2016-05-22T00:02:00.206Z,0
2016-05-22T00:03:00.380Z,0
2016-05-22T00:04:00.430Z,0
2016-05-22T00:05:00.276Z,0
2016-05-22T00:06:00.467Z,0
2016-05-22T00:07:00.485Z,0
2016-05-22T00:08:00.503Z,0
2016-05-22T00:09:00.522Z,0
2016-05-22T00:10:00.556Z,0
2016-05-22T00:11:00.948Z,0
2016-05-22T00:12:00.640Z,0
2016-05-22T00:13:00.970Z,0
2016-05-22T00:14:00.519Z,0
2016-05-22T00:15:00.695Z,0
2016-05-22T00:16:00.712Z,0
2016-05-22T00:17:00.434Z,0
2016-05-22T00:18:00.780Z,0
2016-05-22T00:19:00.783Z,0
2016-05-22T00:20:01.098Z,0
2016-05-22T00:21:00.850Z,0
2016-05-22T00:22:00.885Z,0
2016-05-22T00:23:00.919Z,0
2016-05-22T00:24:00.936Z,0
2016-05-22T00:25:00.956Z,0
2016-05-22T00:26:00.817Z,0
2016-05-22T00:27:00.991Z,0
2016-05-22T00:28:00.917Z,0
2016-05-22T00:29:00.888Z,0
2016-05-22T00:30:01.094Z,0
2016-05-22T00:31:01.080Z,0
2016-05-22T00:32:00.958Z,0
2016-05-22T00:33:01.149Z,0
2016-05-22T00:34:01.182Z,0
2016-05-22T00:35:01.045Z,0
2016-05-22T00:36:01.235Z,0
2016-05-22T00:37:01.254Z,0
2016-05-22T00:38:01.256Z,0
2016-05-22T00:39:01.290Z,0
2016-05-22T00:40:01.168Z,0
2016-05-22T00:41:01.342Z,0
2016-05-22T00:42:01.392Z,0
2016-05-22T00:43:01.254Z,0
2016-05-22T00:44:01.100Z,0
2016-05-22T00:45:01.291Z,0
2016-05-22T00:46:01.465Z,0
2016-05-22T00:47:01.498Z,0
2016-05-22T00:48:01.534Z,0
2016-05-22T00:49:01.567Z,0
2016-05-22T00:50:01.569Z,0
2016-05-22T00:51:01.447Z,0
2016-05-22T00:52:01.622Z,0
2016-05-22T00:53:01.484Z,0
2016-05-22T00:54:01.674Z,0
2016-05-22T00:55:01.692Z,0
2016-05-22T00:56:01.758Z,0
2016-05-22T00:57:01.760Z,0
2016-05-22T00:58:01.638Z,0
2016-05-22T00:59:01.813Z,0
2016-05-22T01:00:01.659Z,0
2016-05-22T01:01:01.693Z,0
2016-05-22T01:02:01.868Z,0
2016-05-22T01:03:01.901Z,0
2016-05-22T01:04:01.919Z,0
2016-05-22T01:05:01.938Z,0
2016-05-22T01:06:01.831Z,0
2016-05-22T01:07:02.006Z,0
2016-05-22T01:08:01.868Z,0
2016-05-22T01:09:02.043Z,0
2016-05-22T01:10:02.076Z,0
2016-05-22T01:11:02.095Z,0
2016-05-22T01:12:02.129Z,0
2016-05-22T01:13:02.303Z,0
2016-05-22T01:14:02.025Z,0
2016-05-22T01:15:01.887Z,0
2016-05-22T01:16:02.217Z,0
2016-05-22T01:17:02.252Z,0
2016-05-22T01:18:02.270Z,0
2016-05-22T01:19:02.147Z,0
2016-05-22T01:20:02.337Z,0
2016-05-22T01:21:02.356Z,0
2016-05-22T01:22:02.375Z,0
2016-05-22T01:23:02.409Z,0
2016-05-22T01:24:02.114Z,0
2016-05-22T01:25:02.461Z,0
2016-05-22T01:26:02.478Z,0
2016-05-22T01:27:02.513Z,0
2016-05-22T01:28:02.828Z,0
2016-05-22T01:29:02.549Z,0
2016-05-22T01:30:02.583Z,0
2016-05-22T01:31:02.616Z,0
2016-05-22T01:32:02.666Z,0
2016-05-22T01:33:02.669Z,0
2016-05-22T01:34:02.516Z,0
2016-05-22T01:35:02.706Z,0
2016-05-22T01:36:02.755Z,0
2016-05-22T01:37:02.758Z,0
2016-05-22T01:38:02.777Z,0
2016-05-22T01:39:02.810Z,0
2016-05-22T01:40:02.829Z,0
2016-05-22T01:41:02.878Z,0
2016-05-22T01:42:02.882Z,0
2016-05-22T01:43:02.931Z,0
2016-05-22T01:44:02.918Z,0
2016-05-22T01:45:02.951Z,0
2016-05-22T01:46:02.845Z,0
2016-05-22T01:47:03.020Z,0
2016-05-22T01:48:02.867Z,0
2016-05-22T01:49:03.056Z,0
2016-05-22T01:50:03.090Z,0
2016-05-22T01:51:03.109Z,0
2016-05-22T01:52:03.127Z,0
2016-05-22T01:53:03.161Z,0
2016-05-22T01:54:03.178Z,0
2016-05-22T01:55:03.214Z,0
2016-05-22T01:56:03.231Z,0
2016-05-22T01:57:03.250Z,0
2016-05-22T01:58:03.143Z,0
2016-05-22T01:59:03.317Z,0
2016-05-22T02:00:03.336Z,0
2016-05-22T02:01:03.198Z,0
2016-05-22T02:02:03.372Z,0
2016-05-22T02:03:03.407Z,0
2016-05-22T02:04:03.299Z,0
2016-05-22T02:05:03.459Z,0
2016-05-22T02:06:03.493Z,0
2016-05-22T02:07:03.510Z,0
2016-05-22T02:08:03.530Z,0
2016-05-22T02:09:03.563Z,0
2016-05-22T02:10:03.582Z,0
2016-05-22T02:11:03.615Z,0
2016-05-22T02:12:03.665Z,0
2016-05-22T02:13:03.809Z,0
2016-05-22T02:14:03.687Z,0
2016-05-22T02:15:03.704Z,0
2016-05-22T02:16:03.738Z,0
2016-05-22T02:17:03.601Z,0
2016-05-22T02:18:03.790Z,0
2016-05-22T02:19:03.856Z,0
2016-05-22T02:20:03.843Z,0
2016-05-22T02:21:03.877Z,0
2016-05-22T02:22:03.723Z,0
2016-05-22T02:23:03.757Z,0
2016-05-22T02:24:03.947Z,0
2016-05-22T02:25:03.966Z,0
2016-05-22T02:26:03.828Z,0
2016-05-22T02:27:04.018Z,0
2016-05-22T02:28:04.505Z,0
2016-05-22T02:29:04.055Z,0
2016-05-22T02:30:03.933Z,0
2016-05-22T02:31:04.107Z,0
2016-05-22T02:32:03.985Z,0
2016-05-22T02:33:04.159Z,0
2016-05-22T02:34:04.037Z,0
2016-05-22T02:35:04.055Z,0
2016-05-22T02:36:04.230Z,0
2016-05-22T02:37:04.263Z,0
2016-05-22T02:38:04.282Z,0
2016-05-22T02:39:04.144Z,0
2016-05-22T02:40:04.335Z,0
2016-05-22T02:41:04.368Z,0
2016-05-22T02:42:04.387Z,0
2016-05-22T02:43:04.374Z,0
2016-05-22T02:44:04.282Z,0
2016-05-22T02:45:04.456Z,0
2016-05-22T02:46:04.491Z,0
2016-05-22T02:47:04.509Z,0
2016-05-22T02:48:04.387Z,0
2016-05-22T02:49:04.562Z,0
2016-05-22T02:50:04.579Z,0
2016-05-22T02:51:04.614Z,0
2016-05-22T02:52:04.632Z,0
2016-05-22T02:53:04.681Z,0
2016-05-22T02:54:04.684Z,0
2016-05-22T02:55:04.734Z,0
2016-05-22T02:56:04.752Z,0
2016-05-22T02:57:04.802Z,0
2016-05-22T02:58:04.805Z,0
2016-05-22T02:59:04.807Z,0
2016-05-22T03:00:04.841Z,0
2016-05-22T03:01:04.391Z,0
2016-05-22T03:02:04.894Z,0
2016-05-22T03:03:04.927Z,0
2016-05-22T03:04:04.945Z,0
2016-05-22T03:05:04.964Z,0
2016-05-22T03:06:04.997Z,0
2016-05-22T03:07:05.016Z,0
2016-05-22T03:08:04.894Z,0
2016-05-22T03:09:04.913Z,0
2016-05-22T03:10:05.102Z,0
2016-05-22T03:11:05.135Z,0
2016-05-22T03:12:05.138Z,0
2016-05-22T03:13:05.016Z,0
2016-05-22T03:14:05.191Z,0
2016-05-22T03:15:05.068Z,0
2016-05-22T03:16:05.243Z,0
2016-05-22T03:17:05.262Z,0
2016-05-22T03:18:05.295Z,0
2016-05-22T03:19:05.174Z,0
2016-05-22T03:20:05.192Z,0
2016-05-22T03:21:05.367Z,0
2016-05-22T03:22:05.400Z,0
2016-05-22T03:23:05.434Z,0
2016-05-22T03:24:05.453Z,0
2016-05-22T03:25:05.470Z,4
2016-05-22T03:26:05.489Z,4
2016-05-22T03:27:05.523Z,4
2016-05-22T03:28:05.510Z,4
2016-05-22T03:29:05.419Z,4
2016-05-22T03:30:05.453Z,8
2016-05-22T03:31:05.535Z,8
2016-05-22T03:32:05.741Z,8
2016-05-22T03:33:05.636Z,12
2016-05-22T03:34:05.685Z,8
2016-05-22T03:35:05.880Z,12
2016-05-22T03:36:05.941Z,12
2016-05-22T03:37:05.970Z,12
2016-05-22T03:38:06.016Z,12
2016-05-22T03:39:06.044Z,16
2016-05-22T03:40:05.915Z,16
2016-05-22T03:41:06.108Z,16
2016-05-22T03:42:06.131Z,20
2016-05-22T03:43:05.856Z,20
2016-05-22T03:44:06.192Z,20
2016-05-22T03:45:06.244Z,24
2016-05-22T03:46:06.249Z,24
2016-05-22T03:47:06.112Z,28
2016-05-22T03:48:06.288Z,32
2016-05-22T03:49:06.168Z,32
2016-05-22T03:50:06.357Z,32
2016-05-22T03:51:06.221Z,32
2016-05-22T03:52:06.396Z,32
2016-05-22T03:53:06.274Z,24
2016-05-22T03:54:06.449Z,24
2016-05-22T03:55:06.467Z,24
2016-05-22T03:56:06.501Z,20
2016-05-22T03:57:06.363Z,20
2016-05-22T03:58:06.881Z,20
2016-05-22T03:59:06.571Z,24
2016-05-22T04:00:06.605Z,24
2016-05-22T04:01:06.624Z,24
2016-05-22T04:02:06.658Z,24
2016-05-22T04:03:06.676Z,28
2016-05-22T04:04:06.741Z,28
2016-05-22T04:05:06.743Z,32
2016-05-22T04:06:06.762Z,32
2016-05-22T04:07:06.797Z,36
2016-05-22T04:08:06.799Z,44
2016-05-22T04:09:06.848Z,48
2016-05-22T04:10:06.867Z,60
2016-05-22T04:11:06.901Z,76
2016-05-22T04:12:06.904Z,84
2016-05-22T04:13:06.813Z,108
2016-05-22T04:14:06.956Z,128
2016-05-22T04:15:06.989Z,156
2016-05-22T04:16:07.023Z,176
2016-05-22T04:17:07.042Z,188
2016-05-22T04:18:07.060Z,180
2016-05-22T04:19:07.095Z,188
2016-05-22T04:20:07.113Z,212
2016-05-22T04:21:07.146Z,244
2016-05-22T04:22:07.009Z,292
2016-05-22T04:23:07.214Z,348
2016-05-22T04:24:07.061Z,376
2016-05-22T04:25:07.236Z,384
2016-05-22T04:26:07.114Z,388
2016-05-22T04:27:07.303Z,368
2016-05-22T04:28:07.166Z,336
2016-05-22T04:29:07.184Z,296
2016-05-22T04:30:07.374Z,268
2016-05-22T04:31:07.252Z,264
2016-05-22T04:32:07.426Z,256
2016-05-22T04:33:07.288Z,232
2016-05-22T04:34:07.478Z,216
2016-05-22T04:35:07.496Z,204
2016-05-22T04:36:07.530Z,216
2016-05-22T04:37:07.393Z,268
2016-05-22T04:38:07.583Z,336
2016-05-22T04:39:07.445Z,392
2016-05-22T04:40:07.463Z,464
2016-05-22T04:41:07.653Z,508
2016-05-22T04:42:07.671Z,532
2016-05-22T04:43:07.612Z,540
2016-05-22T04:44:07.740Z,520
2016-05-22T04:45:07.757Z,448
2016-05-22T04:46:07.776Z,404
2016-05-22T04:47:07.654Z,408
2016-05-22T04:48:07.844Z,428
2016-05-22T04:49:07.862Z,452
2016-05-22T04:50:07.881Z,484
2016-05-22T04:51:07.915Z,516
2016-05-22T04:52:07.776Z,532
2016-05-22T04:53:07.967Z,540
2016-05-22T04:54:07.985Z,544
2016-05-22T04:55:08.019Z,532
2016-05-22T04:56:08.037Z,492
2016-05-22T04:57:08.071Z,432
2016-05-22T04:58:08.589Z,372
2016-05-22T04:59:08.124Z,316
2016-05-22T05:00:07.986Z,272
2016-05-22T05:01:08.175Z,244
2016-05-22T05:02:08.194Z,236
2016-05-22T05:03:08.227Z,252
2016-05-22T05:04:07.933Z,300
2016-05-22T05:05:08.280Z,360
2016-05-22T05:06:08.299Z,432
2016-05-22T05:07:08.316Z,480
2016-05-22T05:08:08.351Z,496
2016-05-22T05:09:08.385Z,508
2016-05-22T05:10:08.418Z,516
2016-05-22T05:11:08.453Z,524
2016-05-22T05:12:08.455Z,516
2016-05-22T05:13:08.942Z,516
2016-05-22T05:14:08.195Z,516
2016-05-22T05:15:08.526Z,528
2016-05-22T05:16:08.403Z,532
2016-05-22T05:17:08.423Z,508
2016-05-22T05:18:08.612Z,476
2016-05-22T05:19:08.489Z,436
2016-05-22T05:20:08.664Z,388
2016-05-22T05:21:08.370Z,356
2016-05-22T05:22:08.717Z,340
2016-05-22T05:23:08.735Z,332
2016-05-22T05:24:08.770Z,324
2016-05-22T05:25:08.474Z,304
2016-05-22T05:26:08.821Z,284
2016-05-22T05:27:08.684Z,272
2016-05-22T05:28:09.248Z,296
2016-05-22T05:29:08.892Z,344
2016-05-22T05:30:08.926Z,448
2016-05-22T05:31:08.788Z,636
2016-05-22T05:32:08.821Z,852
2016-05-22T05:33:08.841Z,1060
2016-05-22T05:34:09.014Z,1220
2016-05-22T05:35:09.049Z,1308
2016-05-22T05:36:09.067Z,1292
2016-05-22T05:37:08.945Z,1264
2016-05-22T05:38:09.119Z,1264
2016-05-22T05:39:09.153Z,1264
2016-05-22T05:40:09.171Z,1212
2016-05-22T05:41:09.205Z,1104
2016-05-22T05:42:09.083Z,1028
2016-05-22T05:43:09.258Z,1072
2016-05-22T05:44:09.291Z,1188
2016-05-22T05:45:08.997Z,1288
2016-05-22T05:46:09.328Z,1272
2016-05-22T05:47:09.362Z,1172
2016-05-22T05:48:09.223Z,1064
2016-05-22T05:49:09.415Z,1044
2016-05-22T05:50:09.292Z,1132
2016-05-22T05:51:09.467Z,1240
2016-05-22T05:52:09.344Z,1316
2016-05-22T05:53:09.520Z,1368
2016-05-22T05:54:09.381Z,1400
2016-05-22T05:55:09.571Z,1428
2016-05-22T05:56:09.605Z,1500
2016-05-22T05:57:09.623Z,1596
2016-05-22T05:58:10.642Z,1684
2016-05-22T05:59:09.519Z,1716
2016-05-22T06:00:09.694Z,1740
2016-05-22T06:01:09.728Z,1780
2016-05-22T06:02:09.605Z,1852
2016-05-22T06:03:09.780Z,1984
2016-05-22T06:04:09.813Z,2136
2016-05-22T06:05:09.833Z,2228
2016-05-22T06:06:09.710Z,2280
2016-05-22T06:07:09.885Z,2308
2016-05-22T06:08:09.763Z,2356
2016-05-22T06:09:09.952Z,2372
2016-05-22T06:10:10.002Z,2344
2016-05-22T06:11:10.021Z,2420
2016-05-22T06:12:09.866Z,2620
2016-05-22T06:13:09.932Z,2740
2016-05-22T06:14:10.076Z,2748
2016-05-22T06:15:10.110Z,2724
2016-05-22T06:16:10.127Z,2404
2016-05-22T06:17:10.162Z,2336
2016-05-22T06:18:10.196Z,2452
2016-05-22T06:19:10.199Z,2692
2016-05-22T06:20:10.248Z,2800
2016-05-22T06:21:10.265Z,2948
2016-05-22T06:22:10.315Z,3884
2016-05-22T06:23:10.334Z,3084
2016-05-22T06:24:10.368Z,2768
2016-05-22T06:25:10.402Z,2408
2016-05-22T06:26:10.436Z,2188
2016-05-22T06:27:10.453Z,2004
2016-05-22T06:28:10.332Z,1892
2016-05-22T06:29:10.506Z,1864
2016-05-22T06:30:10.353Z,1876
2016-05-22T06:31:10.543Z,1928
2016-05-22T06:32:10.562Z,2136
2016-05-22T06:33:10.438Z,2560
2016-05-22T06:34:10.613Z,3224
2016-05-22T06:35:10.663Z,3976
2016-05-22T06:36:10.666Z,3792
2016-05-22T06:37:10.700Z,2892
2016-05-22T06:38:10.718Z,2512
2016-05-22T06:39:10.767Z,2656
2016-05-22T06:40:10.770Z,3084
2016-05-22T06:41:10.648Z,3548
2016-05-22T06:42:10.822Z,3992
2016-05-22T06:43:11.919Z,3372
2016-05-22T06:44:10.875Z,3296
2016-05-22T06:45:10.909Z,3280
2016-05-22T06:46:10.770Z,3140
2016-05-22T06:47:10.961Z,3296
2016-05-22T06:48:10.838Z,4160
2016-05-22T06:49:11.013Z,6084
2016-05-22T06:50:11.032Z,10888
2016-05-22T06:51:11.065Z,6524
2016-05-22T06:52:10.942Z,8736
2016-05-22T06:53:11.117Z,4852
2016-05-22T06:54:11.151Z,4288
2016-05-22T06:55:11.170Z,3756
2016-05-22T06:56:11.204Z,3132
2016-05-22T06:57:11.066Z,2624
2016-05-22T06:58:11.584Z,2244
2016-05-22T06:59:11.275Z,1960
2016-05-22T07:00:11.152Z,1788
2016-05-22T07:01:11.343Z,1656
2016-05-22T07:02:11.205Z,1580
2016-05-22T07:03:11.238Z,1560
2016-05-22T07:04:11.444Z,1624
2016-05-22T07:05:11.447Z,1748
2016-05-22T07:06:11.168Z,1880
2016-05-22T07:07:11.499Z,1952
2016-05-22T07:08:11.377Z,1976
2016-05-22T07:09:11.567Z,2024
2016-05-22T07:10:11.429Z,2116
2016-05-22T07:11:11.604Z,2260
2016-05-22T07:12:11.482Z,2352
2016-05-22T07:13:12.109Z,2380
2016-05-22T07:14:11.690Z,2352
2016-05-22T07:15:11.724Z,2404
2016-05-22T07:16:11.757Z,2512
2016-05-22T07:17:11.776Z,2604
2016-05-22T07:18:11.810Z,2732
2016-05-22T07:19:11.829Z,2808
2016-05-22T07:20:11.862Z,2868
2016-05-22T07:21:11.881Z,3068
2016-05-22T07:22:11.915Z,3304
2016-05-22T07:23:11.933Z,3624
2016-05-22T07:24:11.967Z,3520
2016-05-22T07:25:11.985Z,3332
2016-05-22T07:26:12.020Z,2984
2016-05-22T07:27:11.897Z,2744
2016-05-22T07:28:12.431Z,2636
2016-05-22T07:29:12.105Z,2976
2016-05-22T07:30:12.123Z,4460
2016-05-22T07:31:12.158Z,3828
2016-05-22T07:32:12.176Z,4352
2016-05-22T07:33:12.209Z,7560
2016-05-22T07:34:12.227Z,7416
2016-05-22T07:35:12.261Z,8532
2016-05-22T07:36:12.297Z,8400
2016-05-22T07:37:12.330Z,4664
2016-05-22T07:38:12.395Z,4168
2016-05-22T07:39:12.054Z,5352
2016-05-22T07:40:12.400Z,6048
2016-05-22T07:41:12.434Z,6160
2016-05-22T07:42:12.452Z,5280
2016-05-22T07:43:12.815Z,5388
2016-05-22T07:44:12.505Z,5536
2016-05-22T07:45:12.554Z,5688
2016-05-22T07:46:12.573Z,6592
2016-05-22T07:47:12.590Z,7000
2016-05-22T07:48:12.468Z,9548
2016-05-22T07:49:12.660Z,8804
2016-05-22T07:50:12.677Z,7308
2016-05-22T07:51:12.711Z,5956
2016-05-22T07:52:12.573Z,5736
2016-05-22T07:53:12.763Z,4488
2016-05-22T07:54:12.640Z,3680
2016-05-22T07:55:12.660Z,3176
2016-05-22T07:56:12.850Z,2976
2016-05-22T07:57:12.883Z,2812
2016-05-22T07:58:12.762Z,2612
2016-05-22T07:59:12.920Z,2408
2016-05-22T08:00:12.797Z,2192
2016-05-22T08:01:12.989Z,2004
2016-05-22T08:02:13.007Z,1872
2016-05-22T08:03:13.025Z,1784
2016-05-22T08:04:12.917Z,1784
2016-05-22T08:05:12.937Z,1780
2016-05-22T08:06:13.127Z,1764
2016-05-22T08:07:13.144Z,1716
2016-05-22T08:08:13.022Z,1636
2016-05-22T08:09:13.197Z,1600
2016-05-22T08:10:13.231Z,1596
2016-05-22T08:11:12.953Z,1580
2016-05-22T08:12:13.283Z,1572
2016-05-22T08:13:13.333Z,1628
2016-05-22T08:14:13.335Z,1776
2016-05-22T08:15:13.369Z,1976
2016-05-22T08:16:13.231Z,2120
2016-05-22T08:17:13.421Z,2092
2016-05-22T08:18:13.455Z,1960
2016-05-22T08:19:13.474Z,1832
2016-05-22T08:20:13.507Z,1736
2016-05-22T08:21:13.557Z,1604
2016-05-22T08:22:13.560Z,1512
2016-05-22T08:23:13.594Z,1576
2016-05-22T08:24:13.612Z,1624
2016-05-22T08:25:13.646Z,1528
2016-05-22T08:26:13.665Z,1492
2016-05-22T08:27:13.698Z,1488
2016-05-22T08:28:13.748Z,1484
2016-05-22T08:29:13.751Z,1432
2016-05-22T08:30:13.629Z,1488
2016-05-22T08:31:13.803Z,1568
2016-05-22T08:32:13.837Z,1568
2016-05-22T08:33:13.855Z,1584
2016-05-22T08:34:13.890Z,1508
2016-05-22T08:35:13.908Z,1348
2016-05-22T08:36:13.942Z,1120
2016-05-22T08:37:13.975Z,884
2016-05-22T08:38:13.994Z,772
2016-05-22T08:39:14.027Z,728
2016-05-22T08:40:14.062Z,648
2016-05-22T08:41:14.096Z,648
2016-05-22T08:42:14.114Z,700
2016-05-22T08:43:13.991Z,740
2016-05-22T08:44:14.166Z,804
2016-05-22T08:45:14.200Z,828
2016-05-22T08:46:14.063Z,844
2016-05-22T08:47:14.268Z,856
2016-05-22T08:48:14.271Z,840
2016-05-22T08:49:14.304Z,820
2016-05-22T08:50:14.323Z,884
2016-05-22T08:51:14.357Z,984
2016-05-22T08:52:14.375Z,1016
2016-05-22T08:53:14.409Z,1084
2016-05-22T08:54:13.974Z,1132
2016-05-22T08:55:14.477Z,1116
2016-05-22T08:56:14.495Z,1072
2016-05-22T08:57:14.373Z,1052
2016-05-22T08:58:15.142Z,1092
2016-05-22T08:59:14.581Z,1152
2016-05-22T09:00:14.459Z,1236
2016-05-22T09:01:14.320Z,1312
2016-05-22T09:02:14.652Z,1336
2016-05-22T09:03:14.545Z,1308
2016-05-22T09:04:14.720Z,1260
2016-05-22T09:05:14.425Z,1184
2016-05-22T09:06:14.772Z,1100
2016-05-22T09:07:14.791Z,1052
2016-05-22T09:08:14.825Z,1000
2016-05-22T09:09:14.842Z,976
2016-05-22T09:10:14.892Z,996
2016-05-22T09:11:14.927Z,1020
2016-05-22T09:12:14.772Z,1100
2016-05-22T09:13:15.603Z,1100
2016-05-22T09:14:14.981Z,1040
2016-05-22T09:15:15.031Z,960
2016-05-22T09:16:14.893Z,908
2016-05-22T09:17:15.082Z,920
2016-05-22T09:18:15.116Z,928
2016-05-22T09:19:15.119Z,936
2016-05-22T09:20:15.154Z,912
2016-05-22T09:21:15.171Z,896
2016-05-22T09:22:15.206Z,892
2016-05-22T09:23:15.224Z,892
2016-05-22T09:24:15.274Z,860
2016-05-22T09:25:15.276Z,800
2016-05-22T09:26:15.154Z,748
2016-05-22T09:27:15.345Z,732
2016-05-22T09:28:16.175Z,780
2016-05-22T09:29:15.396Z,840
2016-05-22T09:30:15.415Z,900
2016-05-22T09:31:15.293Z,960
2016-05-22T09:32:15.468Z,1068
2016-05-22T09:33:15.501Z,1232
2016-05-22T09:34:15.534Z,1376
2016-05-22T09:35:15.553Z,1452
2016-05-22T09:36:15.587Z,1396
2016-05-22T09:37:15.605Z,1452
2016-05-22T09:38:15.639Z,1620
2016-05-22T09:39:15.673Z,1756
2016-05-22T09:40:15.708Z,1804
2016-05-22T09:41:15.725Z,1748
2016-05-22T09:42:15.760Z,1732
2016-05-22T09:43:15.872Z,1796
2016-05-22T09:44:15.811Z,1868
2016-05-22T09:45:15.814Z,1868
2016-05-22T09:46:15.692Z,1884
2016-05-22T09:47:15.727Z,1960
2016-05-22T09:48:15.916Z,2000
2016-05-22T09:49:15.935Z,2044
2016-05-22T09:50:15.797Z,2208
2016-05-22T09:51:15.830Z,2404
2016-05-22T09:52:16.021Z,2612
2016-05-22T09:53:16.040Z,2820
2016-05-22T09:54:16.074Z,2820
2016-05-22T09:55:15.951Z,2544
2016-05-22T09:56:16.126Z,2272
2016-05-22T09:57:16.159Z,2104
2016-05-22T09:58:16.193Z,2008
2016-05-22T09:59:16.196Z,1900
2016-05-22T10:00:16.073Z,1736
2016-05-22T10:01:16.107Z,1568
2016-05-22T10:02:16.282Z,1408
2016-05-22T10:03:16.316Z,1312
2016-05-22T10:04:16.350Z,1288
2016-05-22T10:05:16.368Z,1252
2016-05-22T10:06:16.403Z,1180
2016-05-22T10:07:16.421Z,1116
2016-05-22T10:08:16.314Z,1128
2016-05-22T10:09:16.317Z,1248
2016-05-22T10:10:16.506Z,1388
2016-05-22T10:11:16.525Z,1448
2016-05-22T10:12:16.559Z,1532
2016-05-22T10:13:16.749Z,1736
2016-05-22T10:14:16.611Z,1876
2016-05-22T10:15:16.645Z,1992
2016-05-22T10:16:16.663Z,2144
2016-05-22T10:17:16.683Z,2284
2016-05-22T10:18:16.715Z,2296
2016-05-22T10:19:16.735Z,2300
2016-05-22T10:20:16.768Z,2304
2016-05-22T10:21:16.786Z,2328
2016-05-22T10:22:16.821Z,2408
2016-05-22T10:23:16.854Z,2416
2016-05-22T10:24:16.716Z,2436
2016-05-22T10:25:16.766Z,2396
2016-05-22T10:26:16.799Z,2212
2016-05-22T10:27:16.802Z,2096
2016-05-22T10:28:16.868Z,2160
2016-05-22T10:29:16.870Z,2364
2016-05-22T10:30:17.029Z,2576
2016-05-22T10:31:17.062Z,2692
2016-05-22T10:32:17.098Z,2660
2016-05-22T10:33:17.116Z,2584
2016-05-22T10:34:17.150Z,2592
2016-05-22T10:35:17.184Z,2796
2016-05-22T10:36:17.046Z,3080
2016-05-22T10:37:17.220Z,3328
2016-05-22T10:38:17.254Z,3392
2016-05-22T10:39:17.272Z,3256
2016-05-22T10:40:17.306Z,2976
2016-05-22T10:41:17.340Z,2672
2016-05-22T10:42:17.203Z,2404
2016-05-22T10:43:17.580Z,2184
2016-05-22T10:44:17.411Z,2096
2016-05-22T10:45:17.444Z,2092
2016-05-22T10:46:17.479Z,2052
2016-05-22T10:47:17.355Z,2120
2016-05-22T10:48:17.530Z,2172
2016-05-22T10:49:17.408Z,2308
2016-05-22T10:50:17.583Z,2484
2016-05-22T10:51:17.446Z,2512
2016-05-22T10:52:17.651Z,2372
2016-05-22T10:53:17.341Z,2188
2016-05-22T10:54:17.688Z,2108
2016-05-22T10:55:17.722Z,2028
2016-05-22T10:56:17.741Z,2060
2016-05-22T10:57:17.757Z,2148
2016-05-22T10:58:17.948Z,2404
2016-05-22T10:59:17.826Z,2740
2016-05-22T11:00:17.876Z,3024
2016-05-22T11:01:17.879Z,3236
2016-05-22T11:02:17.912Z,3352
2016-05-22T11:03:17.931Z,3392
2016-05-22T11:04:17.965Z,3312
2016-05-22T11:05:18.015Z,3152
2016-05-22T11:06:18.017Z,3028
2016-05-22T11:07:18.050Z,3000
2016-05-22T11:08:18.069Z,2988
2016-05-22T11:09:17.931Z,2996
2016-05-22T11:10:18.136Z,3108
2016-05-22T11:11:18.156Z,3312
2016-05-22T11:12:18.173Z,3428
2016-05-22T11:13:17.926Z,3384
2016-05-22T11:14:18.241Z,3140
2016-05-22T11:15:18.260Z,2804
2016-05-22T11:16:18.278Z,2660
2016-05-22T11:17:18.312Z,2796
2016-05-22T11:18:18.346Z,3060
2016-05-22T11:19:18.364Z,3392
2016-05-22T11:20:18.241Z,3424
2016-05-22T11:21:18.432Z,3164
2016-05-22T11:22:18.450Z,3080
2016-05-22T11:23:18.469Z,3280
2016-05-22T11:24:18.347Z,3560
2016-05-22T11:25:18.521Z,3820
2016-05-22T11:26:18.555Z,4068
2016-05-22T11:27:18.589Z,4172
2016-05-22T11:28:19.388Z,4184
2016-05-22T11:29:18.469Z,4164
2016-05-22T11:30:18.503Z,4052
2016-05-22T11:31:18.693Z,3848
2016-05-22T11:32:18.727Z,3656
2016-05-22T11:33:18.605Z,3456
2016-05-22T11:34:18.780Z,3108
2016-05-22T11:35:18.798Z,2644
2016-05-22T11:36:18.832Z,2136
2016-05-22T11:37:18.851Z,1752
2016-05-22T11:38:18.900Z,1804
2016-05-22T11:39:18.762Z,2156
2016-05-22T11:40:18.936Z,2300
2016-05-22T11:41:19.017Z,2080
2016-05-22T11:42:19.004Z,1944
2016-05-22T11:43:19.117Z,2232
2016-05-22T11:44:19.056Z,2692
2016-05-22T11:45:19.091Z,3104
2016-05-22T11:46:19.109Z,3576
2016-05-22T11:47:19.143Z,3888
2016-05-22T11:48:19.161Z,4128
2016-05-22T11:49:19.179Z,4404
2016-05-22T11:50:19.214Z,4128
2016-05-22T11:51:19.091Z,3740
2016-05-22T11:52:19.266Z,3164
2016-05-22T11:53:19.144Z,2576
2016-05-22T11:54:19.318Z,2208
2016-05-22T11:55:19.352Z,2020
2016-05-22T11:56:19.386Z,1924
2016-05-22T11:57:19.419Z,1996
2016-05-22T11:58:19.313Z,2248
2016-05-22T11:59:19.456Z,2596
2016-05-22T12:00:19.490Z,2888
2016-05-22T12:01:19.384Z,3280
2016-05-22T12:02:19.387Z,3592
2016-05-22T12:03:19.608Z,3564
2016-05-22T12:04:19.610Z,3364
2016-05-22T12:05:19.629Z,3352
2016-05-22T12:06:19.662Z,2920
2016-05-22T12:07:19.368Z,2352
2016-05-22T12:08:19.559Z,2012
2016-05-22T12:09:19.436Z,2012
2016-05-22T12:10:19.611Z,2328
2016-05-22T12:11:19.629Z,2784
2016-05-22T12:12:19.820Z,3200
2016-05-22T12:13:19.838Z,3528
2016-05-22T12:14:19.871Z,3784
2016-05-22T12:15:19.750Z,3920
2016-05-22T12:16:19.924Z,3924
2016-05-22T12:17:19.942Z,3872
2016-05-22T12:18:19.976Z,3836
2016-05-22T12:19:19.853Z,3852
2016-05-22T12:20:20.028Z,3836
2016-05-22T12:21:19.905Z,3760
2016-05-22T12:22:20.096Z,3668
2016-05-22T12:23:19.958Z,3572
2016-05-22T12:24:20.149Z,3504
2016-05-22T12:25:20.027Z,3512
2016-05-22T12:26:20.202Z,3608
2016-05-22T12:27:20.094Z,3668
2016-05-22T12:28:20.252Z,3636
2016-05-22T12:29:20.302Z,3644
2016-05-22T12:30:20.305Z,3800
2016-05-22T12:31:20.339Z,4004
2016-05-22T12:32:20.373Z,4156
2016-05-22T12:33:20.391Z,4228
2016-05-22T12:34:20.268Z,4160
2016-05-22T12:35:20.459Z,3888
2016-05-22T12:36:20.491Z,3556
2016-05-22T12:37:20.546Z,3256
2016-05-22T12:38:20.584Z,3028
2016-05-22T12:39:20.481Z,2860
2016-05-22T12:40:20.519Z,2724
2016-05-22T12:41:20.721Z,2620
2016-05-22T12:42:20.606Z,2540
2016-05-22T12:43:20.491Z,2480
2016-05-22T12:44:20.828Z,2380
2016-05-22T12:45:20.853Z,2232
2016-05-22T12:46:20.734Z,2052
2016-05-22T12:47:20.912Z,1916
2016-05-22T12:48:20.948Z,1824
2016-05-22T12:49:20.986Z,1800
2016-05-22T12:50:20.693Z,1824
2016-05-22T12:51:21.042Z,1884
2016-05-22T12:52:20.920Z,1944
2016-05-22T12:53:21.095Z,1968
2016-05-22T12:54:20.958Z,2000
2016-05-22T12:55:21.165Z,2040
2016-05-22T12:56:21.184Z,2044
2016-05-22T12:57:21.218Z,1988
2016-05-22T12:58:21.096Z,1932
2016-05-22T12:59:21.271Z,1928
2016-05-22T13:00:21.290Z,2016
2016-05-22T13:01:21.324Z,2172
2016-05-22T13:02:21.342Z,2356
2016-05-22T13:03:21.376Z,2516
2016-05-22T13:04:21.396Z,2648
2016-05-22T13:05:21.117Z,2752
2016-05-22T13:06:21.465Z,2852
2016-05-22T13:07:21.185Z,2920
2016-05-22T13:08:21.532Z,2916
2016-05-22T13:09:21.551Z,2856
2016-05-22T13:10:21.568Z,2828
2016-05-22T13:11:23.180Z,2856
2016-05-22T13:12:21.620Z,2892
2016-05-22T13:13:21.748Z,2896
2016-05-22T13:14:21.689Z,2840
2016-05-22T13:15:21.707Z,2716
2016-05-22T13:16:22.694Z,2588
2016-05-22T13:17:21.759Z,2496
2016-05-22T13:18:21.637Z,2456
2016-05-22T13:19:21.655Z,2452
2016-05-22T13:20:21.845Z,2448
2016-05-22T13:21:21.880Z,2420
2016-05-22T13:22:21.897Z,2392
2016-05-22T13:23:21.775Z,2420
2016-05-22T13:24:21.997Z,2448
2016-05-22T13:25:21.984Z,2464
2016-05-22T13:26:21.861Z,2524
2016-05-22T13:27:21.879Z,2600
2016-05-22T13:28:21.617Z,2676
2016-05-22T13:29:22.088Z,2752
2016-05-22T13:30:22.137Z,2740
2016-05-22T13:31:23.766Z,2860
2016-05-22T13:32:21.862Z,2988
2016-05-22T13:33:22.208Z,3172
2016-05-22T13:34:22.243Z,3388
2016-05-22T13:35:22.260Z,3620
2016-05-22T13:36:22.295Z,3732
2016-05-22T13:37:22.172Z,3628
2016-05-22T13:38:22.191Z,3396
2016-05-22T13:39:22.365Z,3160
2016-05-22T13:40:22.243Z,2840
2016-05-22T13:41:22.417Z,2508
2016-05-22T13:42:22.295Z,2232
2016-05-22T13:43:22.798Z,2024
2016-05-22T13:44:22.503Z,1868
2016-05-22T13:45:22.538Z,1756
2016-05-22T13:46:22.556Z,1680